Time;durP1;ratioP1;P1;durP2;ratioP2;P2;SDS_P1;SDS_P2;PMS_P1;PMS_P2;Temp;Humidity;BMP_temperature;BMP_pressure;BME280_temperature;BME280_humidity;BME280_pressure;Samples;Min_cycle;Max_cycle;Signal;HPM_P1;HPM_P2
2021/12/12 00:00:42;;;;;;;;;;;;;;;;;;7392718;19;19934;-62
2021/12/12 00:03:20;;;;;;;;;;;;;;;;;;7390927;19;19918;-63
2021/12/12 00:05:50;;;;;;;;;;;;;;;;;;7393024;19;19979;-64
2021/12/12 00:08:18;;;;;;;;;;;;;;;;;;7392050;19;19922;-63
2021/12/12 00:10:47;;;;;;;;;;;;;;;;;;7391175;19;19918;-63
2021/12/12 00:13:18;;;;;;;;;;;;;;;;;;7392177;19;19919;-64
2021/12/12 00:15:46;;;;;;;;;;;;;;;;;;7392708;19;19919;-63
2021/12/12 00:18:13;;;;;;;;;;;;;;;;;;7393559;19;19911;-63
2021/12/12 00:20:41;;;;;;;;;;;;;;;;;;7391947;19;19939;-63
2021/12/12 00:23:09;;;;;;;;;;;;;;;;;;7390648;19;19930;-63
2021/12/12 00:25:42;;;;;;;;;;;;;;;;;;7389980;19;19922;-63
2021/12/12 00:28:09;;;;;;;;;;;;;;;;;;7391368;19;19936;-63
2021/12/12 00:30:36;;;;;;;;;;;;;;;;;;7391049;19;19917;-63
2021/12/12 00:33:04;;;;;;;;;;;;;;;;;;7391348;19;20019;-63
2021/12/12 00:35:31;;;;;;;;;;;;;;;;;;7390652;19;19942;-63
2021/12/12 00:38:01;;;;;;;;;;;;;;;;;;7391793;19;19928;-62
2021/12/12 00:40:30;;;;;;;;;;;;;;;;;;7390503;19;19915;-63
2021/12/12 00:43:00;;;;;;;;;;;;;;;;;;7389829;19;19915;-63
2021/12/12 00:45:28;;;;;;;;;;;;;;;;;;7390663;19;19997;-63
2021/12/12 00:47:56;;;;;;;;;;;;;;;;;;7391293;19;19926;-63
2021/12/12 00:50:26;;;;;;;;;;;;;;;;;;7391068;19;19943;-63
2021/12/12 00:52:54;;;;;;;;;;;;;;;;;;7391041;19;20239;-63
2021/12/12 00:55:21;;;;;;;;;;;;;;;;;;7390789;19;19939;-62
2021/12/12 00:57:50;;;;;;;;;;;;;;;;;;7389180;19;20338;-63
2021/12/12 01:00:19;;;;;;;;;;;;;;;;;;7391986;19;19942;-63
2021/12/12 01:02:47;;;;;;;;;;;;;;;;;;7397408;19;19919;-63
2021/12/12 01:05:14;;;;;;;;;;;;;;;;;;7398664;19;19940;-63
2021/12/12 01:07:43;;;;;;;;;;;;;;;;;;7397870;19;20359;-63
2021/12/12 01:10:17;;;;;;;;;;;;;;;;;;7397455;19;19939;-63
2021/12/12 01:12:44;;;;;;;;;;;;;;;;;;7398956;19;19925;-64
2021/12/12 01:15:22;;;;;;;;;;;;;;;;;;7398382;19;20331;-63
2021/12/12 01:17:52;;;;;;;;;;;;;;;;;;7397401;19;19921;-63
2021/12/12 01:20:20;;;;;;;;;;;;;;;;;;7398369;19;20337;-63
2021/12/12 01:22:49;;;;;;;;;;;;;;;;;;7396049;19;19911;-63
2021/12/12 01:25:21;;;;;;;;;;;;;;;;;;7398219;19;19922;-63
2021/12/12 01:27:49;;;;;;;;;;;;;;;;;;7397667;19;19930;-63
2021/12/12 01:30:17;;;;;;;;;;;;;;;;;;7398063;19;19926;-63
2021/12/12 01:32:46;;;;;;;;;;;;;;;;;;7397256;19;19911;-62
2021/12/12 01:35:16;;;;;;;;;;;;;;;;;;7397045;19;19922;-63
2021/12/12 01:38:51;;;;;;;;;;;;;;;;;;7397478;19;19921;-63
2021/12/12 01:40:39;;;;;;;;;;;;;;;;;;7395783;19;19964;-63
2021/12/12 01:43:20;;;;;;;;;;;;;;;;;;7395686;19;19929;-63
2021/12/12 01:45:51;;;;;;;;;;;;;;;;;;7396878;19;19915;-63
2021/12/12 01:48:21;;;;;;;;;;;;;;;;;;7397446;19;19919;-63
2021/12/12 01:50:57;;;;;;;;;;;;;;;;;;7397226;19;19938;-63
2021/12/12 01:53:27;;;;;;;;;;;;;;;;;;7396845;19;19919;-63
2021/12/12 01:56:05;;;;;;;;;;;;;;;;;;7396248;19;19970;-63
2021/12/12 01:58:34;;;;;;;;;;;;;;;;;;7396437;19;19918;-63
2021/12/12 02:01:06;;;;;;;;;;;;;;;;;;7396675;19;19911;-63
2021/12/12 02:03:35;;;;;;;;;;;;;;;;;;7395699;19;20335;-63
2021/12/12 02:06:05;;;;;;;;;;;;;;;;;;7394219;19;19925;-63
2021/12/12 02:08:32;;;;;;;;;;;;;;;;;;7395780;19;19923;-63
2021/12/12 02:11:01;;;;;;;;;;;;;;;;;;7399574;19;19931;-63
2021/12/12 02:13:30;;;;;;;;;;;;;;;;;;7396186;19;19918;-63
2021/12/12 02:15:59;;;;;;;;;;;;;;;;;;7395456;19;19925;-63
2021/12/12 02:18:32;;;;;;;;;;;;;;;;;;7395439;19;19915;-63
2021/12/12 02:24:17;;;;;;;;;;;;;;;;;;7393842;19;20343;-63
2021/12/12 02:37:27;;;;;;;;;;;;;;;;;;7399849;19;19971;-63
2021/12/12 02:39:55;;;;;;;;;;;;;;;;;;7394251;19;19925;-63
2021/12/12 02:42:23;;;;;;;;;;;;;;;;;;7395393;19;19915;-63
2021/12/12 02:44:55;;;;;;;;;;;;;;;;;;7395488;19;19934;-63
2021/12/12 02:47:32;;;;;;;;;;;;;;;;;;7395541;19;19922;-63
2021/12/12 02:50:20;;;;;;;;;;;;;;;;;;7394485;19;19911;-63
2021/12/12 02:52:51;;;;;;;;;;;;;;;;;;7394699;19;19919;-63
2021/12/12 02:55:24;;;;;;;;;;;;;;;;;;7394887;19;20209;-63
2021/12/12 02:57:52;;;;;;;;;;;;;;;;;;7395189;19;20335;-63
2021/12/12 03:00:21;;;;;;;;;;;;;;;;;;7397708;19;19970;-64
2021/12/12 03:02:49;;;;;;;;;;;;;;;;;;7393631;19;19974;-63
2021/12/12 03:05:21;;;;;;;;;;;;;;;;;;7394098;19;19927;-63
2021/12/12 03:07:48;;;;;;;;;;;;;;;;;;7394184;19;19935;-63
2021/12/12 03:10:17;;;;;;;;;;;;;;;;;;7393949;19;20391;-63
2021/12/12 03:12:45;;;;;;;;;;;;;;;;;;7394026;19;20012;-63
2021/12/12 03:15:16;;;;;;;;;;;;;;;;;;7392801;19;19932;-63
2021/12/12 03:17:44;;;;;;;;;;;;;;;;;;7393985;19;20018;-63
2021/12/12 03:20:23;;;;;;;;;;;;;;;;;;7393642;19;19919;-63
2021/12/12 03:23:03;;;;;;;;;;;;;;;;;;7391707;19;19922;-63
2021/12/12 03:25:32;;;;;;;;;;;;;;;;;;7393281;19;19915;-63
2021/12/12 03:28:00;;;;;;;;;;;;;;;;;;7393720;19;19938;-63
2021/12/12 03:30:28;;;;;;;;;;;;;;;;;;7392924;19;19919;-63
2021/12/12 03:32:55;;;;;;;;;;;;;;;;;;7393980;19;19942;-62
2021/12/12 03:35:22;;;;;;;;;;;;;;;;;;7394265;19;19910;-62
2021/12/12 03:37:50;;;;;;;;;;;;;;;;;;7393126;19;19915;-63
2021/12/12 03:40:19;;;;;;;;;;;;;;;;;;7391770;19;19927;-63
2021/12/12 03:42:48;;;;;;;;;;;;;;;;;;7393263;19;19919;-63
2021/12/12 03:45:16;;;;;;;;;;;;;;;;;;7391077;19;19914;-63
2021/12/12 03:47:45;;;;;;;;;;;;;;;;;;7392985;19;19919;-63
2021/12/12 03:50:20;;;;;;;;;;;;;;;;;;7393045;19;19919;-63
2021/12/12 03:52:49;;;;;;;;;;;;;;;;;;7395870;19;20187;-63
2021/12/12 03:55:18;;;;;;;;;;;;;;;;;;7392707;19;20238;-63
2021/12/12 03:57:48;;;;;;;;;;;;;;;;;;7391606;19;19922;-63
2021/12/12 04:00:18;;;;;;;;;;;;;;;;;;7392943;19;20243;-63
2021/12/12 04:02:45;;;;;;;;;;;;;;;;;;7392265;19;19918;-63
2021/12/12 04:05:13;;;;;;;;;;;;;;;;;;7392291;19;20354;-63
2021/12/12 04:07:40;;;;;;;;;;;;;;;;;;7392473;19;19917;-63
2021/12/12 04:10:11;;;;;;;;;;;;;;;;;;7392095;19;19925;-64
2021/12/12 04:12:39;;;;;;;;;;;;;;;;;;7392240;19;19925;-63
2021/12/12 04:15:06;;;;;;;;;;;;;;;;;;7391737;19;19915;-63
2021/12/12 04:17:34;;;;;;;;;;;;;;;;;;7390661;19;19923;-63
2021/12/12 04:20:05;;;;;;;;;;;;;;;;;;7390066;19;20335;-63
2021/12/12 04:22:33;;;;;;;;;;;;;;;;;;7391946;19;20343;-63
2021/12/12 04:25:01;;;;;;;;;;;;;;;;;;7392413;19;19911;-63
2021/12/12 04:27:28;;;;;;;;;;;;;;;;;;7395425;19;19930;-63
2021/12/12 04:29:55;;;;;;;;;;;;;;;;;;7396223;19;19915;-62
2021/12/12 04:32:26;;;;;;;;;;;;;;;;;;7391680;19;19939;-63
2021/12/12 04:34:58;;;;;;;;;;;;;;;;;;7396278;19;20348;-63
2021/12/12 04:37:26;;;;;;;;;;;;;;;;;;7410483;19;19982;-63
2021/12/12 04:39:57;;;;;;;;;;;;;;;;;;7404430;19;19933;-63
2021/12/12 04:42:29;;;;;;;;;;;;;;;;;;7405500;19;19956;-62
2021/12/12 04:45:08;;;;;;;;;;;;;;;;;;7404936;19;19943;-63
2021/12/12 04:51:04;;;;;;;;;;;;;;;;;;7405286;19;19910;-63
2021/12/12 04:53:41;;;;;;;;;;;;;;;;;;7405561;19;20324;-63
2021/12/12 04:56:27;;;;;;;;;;;;;;;;;;7405031;19;20336;-63
2021/12/12 04:59:29;;;;;;;;;;;;;;;;;;7404682;19;19974;-62
2021/12/12 05:02:00;;;;;;;;;;;;;;;;;;7401905;19;19919;-63
2021/12/12 05:04:45;;;;;;;;;;;;;;;;;;7402156;19;19919;-63
2021/12/12 05:07:16;;;;;;;;;;;;;;;;;;7404808;19;19915;-63
2021/12/12 05:09:56;;;;;;;;;;;;;;;;;;7404122;19;19917;-63
2021/12/12 05:12:24;;;;;;;;;;;;;;;;;;7404740;19;20276;-63
2021/12/12 05:14:54;;;;;;;;;;;;;;;;;;7404945;19;19919;-63
2021/12/12 05:17:31;;;;;;;;;;;;;;;;;;7404826;19;19971;-63
2021/12/12 05:20:00;;;;;;;;;;;;;;;;;;7403414;19;19921;-63
2021/12/12 05:22:33;;;;;;;;;;;;;;;;;;7404698;19;19950;-63
2021/12/12 05:25:03;;;;;;;;;;;;;;;;;;7403027;19;19907;-63
2021/12/12 05:27:31;;;;;;;;;;;;;;;;;;7405068;19;20051;-63
2021/12/12 05:30:05;;;;;;;;;;;;;;;;;;7404467;19;19927;-62
2021/12/12 05:32:33;;;;;;;;;;;;;;;;;;7404575;19;20003;-63
2021/12/12 05:35:01;;;;;;;;;;;;;;;;;;7404662;19;20330;-63
2021/12/12 05:37:28;;;;;;;;;;;;;;;;;;7409027;19;19943;-63
2021/12/12 05:39:59;;;;;;;;;;;;;;;;;;7404616;19;19927;-63
2021/12/12 05:42:27;;;;;;;;;;;;;;;;;;7404043;19;19931;-64
2021/12/12 05:44:54;;;;;;;;;;;;;;;;;;7402651;19;19923;-63
2021/12/12 05:47:22;;;;;;;;;;;;;;;;;;7395995;19;20263;-63
2021/12/12 05:49:49;;;;;;;;;;;;;;;;;;7396682;19;19919;-63
2021/12/12 05:52:18;;;;;;;;;;;;;;;;;;7396584;19;19914;-63
2021/12/12 05:54:46;;;;;;;;;;;;;;;;;;7396522;19;19915;-63
2021/12/12 05:57:16;;;;;;;;;;;;;;;;;;7396635;19;19918;-63
2021/12/12 05:59:43;;;;;;;;;;;;;;;;;;7395966;19;20271;-63
2021/12/12 06:02:11;;;;;;;;;;;;;;;;;;7396571;19;19919;-63
2021/12/12 06:04:39;;;;;;;;;;;;;;;;;;7394277;19;19979;-63
2021/12/12 06:07:08;;;;;;;;;;;;;;;;;;7396150;19;19954;-63
2021/12/12 06:09:36;;;;;;;;;;;;;;;;;;7396046;19;19919;-63
2021/12/12 06:12:05;;;;;;;;;;;;;;;;;;7396293;19;19915;-63
2021/12/12 06:14:35;;;;;;;;;;;;;;;;;;7395888;19;19914;-63
2021/12/12 06:17:06;;;;;;;;;;;;;;;;;;7396166;19;19921;-63
2021/12/12 06:19:33;;;;;;;;;;;;;;;;;;7396025;19;19915;-63
2021/12/12 06:22:01;;;;;;;;;;;;;;;;;;7397862;19;19954;-62
2021/12/12 06:24:29;;;;;;;;;;;;;;;;;;7395025;19;19923;-62
2021/12/12 06:27:01;;;;;;;;;;;;;;;;;;7395155;19;20336;-63
2021/12/12 06:29:28;;;;;;;;;;;;;;;;;;7395750;19;19915;-62
2021/12/12 06:31:56;;;;;;;;;;;;;;;;;;7395171;19;20339;-62
2021/12/12 06:34:23;;;;;;;;;;;;;;;;;;7395330;19;20347;-62
2021/12/12 06:36:51;;;;;;;;;;;;;;;;;;7398670;19;20461;-62
2021/12/12 06:39:19;;;;;;;;;;;;;;;;;;7395402;19;19986;-57
2021/12/12 06:41:46;;;;;;;;;;;;;;;;;;7394621;19;19947;-63
2021/12/12 06:44:15;;;;;;;;;;;;;;;;;;7393828;19;19915;-63
2021/12/12 06:46:42;;;;;;;;;;;;;;;;;;7395009;19;19915;-62
2021/12/12 06:49:11;;;;;;;;;;;;;;;;;;7395181;19;19919;-62
2021/12/12 06:51:40;;;;;;;;;;;;;;;;;;7394592;19;19915;-62
2021/12/12 06:54:08;;;;;;;;;;;;;;;;;;7395488;19;19918;-64
2021/12/12 06:56:35;;;;;;;;;;;;;;;;;;7394251;19;20248;-63
2021/12/12 06:59:03;;;;;;;;;;;;;;;;;;7392039;19;19911;-62
2021/12/12 07:01:32;;;;;;;;;;;;;;;;;;7395190;19;19978;-63
2021/12/12 07:04:00;;;;;;;;;;;;;;;;;;7393832;19;19918;-62
2021/12/12 07:06:28;;;;;;;;;;;;;;;;;;7394193;19;19914;-63
2021/12/12 07:08:57;;;;;;;;;;;;;;;;;;7392778;19;19992;-62
2021/12/12 07:11:25;;;;;;;;;;;;;;;;;;7394482;19;19922;-62
2021/12/12 07:13:53;;;;;;;;;;;;;;;;;;7393875;19;19911;-63
2021/12/12 07:16:20;;;;;;;;;;;;;;;;;;7394633;19;19952;-63
2021/12/12 07:18:49;;;;;;;;;;;;;;;;;;7394053;19;20359;-60
2021/12/12 07:21:17;;;;;;;;;;;;;;;;;;7393443;19;19922;-63
2021/12/12 07:23:45;;;;;;;;;;;;;;;;;;7393418;19;19911;-62
2021/12/12 07:26:14;;;;;;;;;;;;;;;;;;7392531;19;19968;-63
2021/12/12 07:28:43;;;;;;;;;;;;;;;;;;7393872;19;19958;-62
2021/12/12 07:31:16;;;;;;;;;;;;;;;;;;7393437;19;19915;-62
2021/12/12 07:33:47;;;;;;;;;;;;;;;;;;7391885;19;19932;-62
2021/12/12 07:36:15;;;;;;;;;;;;;;;;;;7395507;19;19915;-62
2021/12/12 07:38:44;;;;;;;;;;;;;;;;;;7393343;19;20359;-63
2021/12/12 07:41:12;;;;;;;;;;;;;;;;;;7389434;19;19922;-62
2021/12/12 07:43:39;;;;;;;;;;;;;;;;;;7392844;19;19907;-62
2021/12/12 07:46:07;;;;;;;;;;;;;;;;;;7392828;19;19925;-63
2021/12/12 07:48:35;;;;;;;;;;;;;;;;;;7393241;19;19919;-61
2021/12/12 07:51:03;;;;;;;;;;;;;;;;;;7393305;19;19918;-63
2021/12/12 07:53:31;;;;;;;;;;;;;;;;;;7391330;19;20023;-62
2021/12/12 07:55:58;;;;;;;;;;;;;;;;;;7392512;19;19981;-62
2021/12/12 07:58:26;;;;;;;;;;;;;;;;;;7392283;19;19907;-62
2021/12/12 08:00:55;;;;;;;;;;;;;;;;;;7392283;19;20310;-62
2021/12/12 08:03:24;;;;;;;;;;;;;;;;;;7393191;19;19918;-63
2021/12/12 08:05:52;;;;;;;;;;;;;;;;;;7393366;19;19925;-63
2021/12/12 08:08:19;;;;;;;;;;;;;;;;;;7392677;19;19915;-63
2021/12/12 08:10:49;;;;;;;;;;;;;;;;;;7391132;19;19930;-62
2021/12/12 08:13:18;;;;;;;;;;;;;;;;;;7392264;19;19927;-63
2021/12/12 08:15:46;;;;;;;;;;;;;;;;;;7392203;19;19911;-62
2021/12/12 08:18:15;;;;;;;;;;;;;;;;;;7392336;19;19939;-63
2021/12/12 08:20:44;;;;;;;;;;;;;;;;;;7390402;19;19915;-63
2021/12/12 08:23:12;;;;;;;;;;;;;;;;;;7392254;19;19915;-63
2021/12/12 08:25:40;;;;;;;;;;;;;;;;;;7389772;19;19923;-63
2021/12/12 08:28:09;;;;;;;;;;;;;;;;;;7392149;19;20336;-62
2021/12/12 08:30:36;;;;;;;;;;;;;;;;;;7391683;19;19936;-64
2021/12/12 08:33:06;;;;;;;;;;;;;;;;;;7392274;19;19926;-64
2021/12/12 08:35:33;;;;;;;;;;;;;;;;;;7392001;19;19929;-63
2021/12/12 08:38:03;;;;;;;;;;;;;;;;;;7391708;19;20331;-63
2021/12/12 08:40:32;;;;;;;;;;;;;;;;;;7388757;19;19925;-63
2021/12/12 08:43:00;;;;;;;;;;;;;;;;;;7391777;19;19923;-63
2021/12/12 08:45:29;;;;;;;;;;;;;;;;;;7389781;19;19930;-63
2021/12/12 08:47:58;;;;;;;;;;;;;;;;;;7391490;19;20381;-62
2021/12/12 08:50:27;;;;;;;;;;;;;;;;;;7390907;19;19915;-63
2021/12/12 08:52:56;;;;;;;;;;;;;;;;;;7390944;19;19930;-63
2021/12/12 08:55:31;;;;;;;;;;;;;;;;;;7390738;19;19917;-63
2021/12/12 08:58:13;;;;;;;;;;;;;;;;;;7391310;19;20367;-63
2021/12/12 09:01:01;;;;;;;;;;;;;;;;;;7390676;19;19970;-64
2021/12/12 09:03:40;;;;;;;;;;;;;;;;;;7390451;19;19922;-63
2021/12/12 09:06:08;;;;;;;;;;;;;;;;;;7391682;19;19919;-63
2021/12/12 09:08:42;;;;;;;;;;;;;;;;;;7390922;19;19915;-61
2021/12/12 09:11:16;;;;;;;;;;;;;;;;;;7388485;19;19922;-63
2021/12/12 09:13:48;;;;;;;;;;;;;;;;;;7390756;19;19927;-62
2021/12/12 09:16:19;;;;;;;;;;;;;;;;;;7390180;19;19922;-63
2021/12/12 09:18:51;;;;;;;;;;;;;;;;;;7390410;19;19911;-63
2021/12/12 09:21:25;;;;;;;;;;;;;;;;;;7390508;19;19919;-63
2021/12/12 09:24:16;;;;;;;;;;;;;;;;;;7397835;19;19918;-63
2021/12/12 09:26:46;;;;;;;;;;;;;;;;;;7397102;19;19915;-63
2021/12/12 09:29:19;;;;;;;;;;;;;;;;;;7397965;19;19921;-64
2021/12/12 09:31:53;;;;;;;;;;;;;;;;;;7397424;19;19970;-63
2021/12/12 09:34:59;;;;;;;;;;;;;;;;;;7396999;19;19927;-63
2021/12/12 09:37:32;;;;;;;;;;;;;;;;;;7394314;19;19918;-64
2021/12/12 09:40:19;;;;;;;;;;;;;;;;;;7393060;19;19922;-62
2021/12/12 09:42:57;;;;;;;;;;;;;;;;;;7394610;19;19919;-63
2021/12/12 09:45:28;;;;;;;;;;;;;;;;;;7395368;19;19915;-64
2021/12/12 09:51:15;;;;;;;;;;;;;;;;;;7397021;19;20251;-61
2021/12/12 09:54:00;;;;;;;;;;;;;;;;;;7397001;19;20327;-62
2021/12/12 09:56:46;;;;;;;;;;;;;;;;;;7396776;19;20583;-62
2021/12/12 09:59:16;;;;;;;;;;;;;;;;;;7396990;19;19915;-62
2021/12/12 10:01:56;;;;;;;;;;;;;;;;;;7396750;19;19915;-63
2021/12/12 10:04:24;;;;;;;;;;;;;;;;;;7396444;19;20513;-62
2021/12/12 10:07:02;;;;;;;;;;;;;;;;;;7397802;19;20327;-62
2021/12/12 10:09:35;;;;;;;;;;;;;;;;;;7396715;19;19915;-62
2021/12/12 10:12:16;;;;;;;;;;;;;;;;;;7396178;19;20339;-62
2021/12/12 10:14:47;;;;;;;;;;;;;;;;;;7396163;19;19918;-62
2021/12/12 10:17:34;;;;;;;;;;;;;;;;;;7396130;19;19919;-63
2021/12/12 10:20:24;;;;;;;;;;;;;;;;;;7396345;19;19927;-62
2021/12/12 10:23:11;;;;;;;;;;;;;;;;;;7395788;19;19978;-62
2021/12/12 10:25:47;;;;;;;;;;;;;;;;;;7394359;19;19919;-63
2021/12/12 10:28:24;;;;;;;;;;;;;;;;;;7395845;19;20335;-64
2021/12/12 10:31:00;;;;;;;;;;;;;;;;;;7395614;19;19915;-62
2021/12/12 10:33:46;;;;;;;;;;;;;;;;;;7395848;19;19922;-62
2021/12/12 10:36:16;;;;;;;;;;;;;;;;;;7398083;19;19922;-61
2021/12/12 10:38:56;;;;;;;;;;;;;;;;;;7395423;19;19982;-62
2021/12/12 10:41:34;;;;;;;;;;;;;;;;;;7395280;19;19923;-62
2021/12/12 10:44:11;;;;;;;;;;;;;;;;;;7395168;19;19919;-61
2021/12/12 10:46:51;;;;;;;;;;;;;;;;;;7395419;19;19914;-63
2021/12/12 10:49:24;;;;;;;;;;;;;;;;;;7394888;19;19940;-62
2021/12/12 10:51:56;;;;;;;;;;;;;;;;;;7394387;19;19915;-62
2021/12/12 10:54:28;;;;;;;;;;;;;;;;;;7395472;19;19919;-62
2021/12/12 10:57:00;;;;;;;;;;;;;;;;;;7394537;19;19923;-61
2021/12/12 10:59:29;;;;;;;;;;;;;;;;;;7395047;19;19918;-62
2021/12/12 11:01:59;;;;;;;;;;;;;;;;;;7394421;19;19925;-62
2021/12/12 11:04:39;;;;;;;;;;;;;;;;;;7394222;19;20332;-62
2021/12/12 11:07:11;;;;;;;;;;;;;;;;;;7394415;19;19959;-62
2021/12/12 11:09:44;;;;;;;;;;;;;;;;;;7394775;19;19910;-63
2021/12/12 11:12:17;;;;;;;;;;;;;;;;;;7398781;19;19922;-61
2021/12/12 11:14:55;;;;;;;;;;;;;;;;;;7394291;19;19927;-65
2021/12/12 11:17:27;;;;;;;;;;;;;;;;;;7394256;19;19914;-64
2021/12/12 11:20:16;;;;;;;;;;;;;;;;;;7394439;19;20166;-62
2021/12/12 11:22:49;;;;;;;;;;;;;;;;;;7393145;19;19914;-60
2021/12/12 11:25:22;;;;;;;;;;;;;;;;;;7391554;19;19942;-64
2021/12/12 11:27:59;;;;;;;;;;;;;;;;;;7394169;19;19919;-62
2021/12/12 11:30:30;;;;;;;;;;;;;;;;;;7393986;19;19907;-62
2021/12/12 11:33:00;;;;;;;;;;;;;;;;;;7391397;19;19915;-64
2021/12/12 11:35:27;;;;;;;;;;;;;;;;;;7393852;19;19915;-62
2021/12/12 11:38:03;;;;;;;;;;;;;;;;;;7393273;19;20440;-64
2021/12/12 11:40:39;;;;;;;;;;;;;;;;;;7392688;19;19944;-62
2021/12/12 11:43:25;;;;;;;;;;;;;;;;;;7393097;19;19922;-62
2021/12/12 11:45:57;;;;;;;;;;;;;;;;;;7390297;19;19919;-62
2021/12/12 11:48:48;;;;;;;;;;;;;;;;;;7393588;19;20236;-62
2021/12/12 11:51:18;;;;;;;;;;;;;;;;;;7391444;19;19939;-62
2021/12/12 11:53:45;;;;;;;;;;;;;;;;;;7388438;19;19923;-62
2021/12/12 11:56:22;;;;;;;;;;;;;;;;;;7389923;19;19915;-62
2021/12/12 11:59:02;;;;;;;;;;;;;;;;;;7388889;19;19942;-62
2021/12/12 12:01:38;;;;;;;;;;;;;;;;;;7390953;19;20028;-63
2021/12/12 12:04:24;;;;;;;;;;;;;;;;;;7390303;19;19918;-62
2021/12/12 12:07:04;;;;;;;;;;;;;;;;;;7391635;19;19925;-62
2021/12/12 12:09:41;;;;;;;;;;;;;;;;;;7393210;19;19921;-62
2021/12/12 12:12:08;;;;;;;;;;;;;;;;;;7393260;19;19999;-64
2021/12/12 12:14:54;;;;;;;;;;;;;;;;;;7392472;19;19911;-62
2021/12/12 12:17:24;;;;;;;;;;;;;;;;;;7392368;19;19930;-63
2021/12/12 12:20:05;;;;;;;;;;;;;;;;;;7392512;19;19921;-63
2021/12/12 12:22:45;;;;;;;;;;;;;;;;;;7392630;19;19924;-64
2021/12/12 12:25:24;;;;;;;;;;;;;;;;;;7391012;19;19918;-62
2021/12/12 12:27:53;;;;;;;;;;;;;;;;;;7392653;19;19923;-64
2021/12/12 12:30:39;;;;;;;;;;;;;;;;;;7390945;19;19915;-62
2021/12/12 12:33:09;;;;;;;;;;;;;;;;;;7392368;19;19935;-63
2021/12/12 12:35:55;;;;;;;;;;;;;;;;;;7392393;19;19914;-62
2021/12/12 12:38:42;;;;;;;;;;;;;;;;;;7391810;19;19915;-63
2021/12/12 12:41:15;;;;;;;;;;;;;;;;;;7390068;19;19927;-62
2021/12/12 12:43:48;;;;;;;;;;;;;;;;;;7391375;19;19919;-64
2021/12/12 12:46:28;;;;;;;;;;;;;;;;;;7388791;19;19923;-62
2021/12/12 12:49:14;;;;;;;;;;;;;;;;;;7391901;19;19939;-64
2021/12/12 12:51:48;;;;;;;;;;;;;;;;;;7392244;19;19916;-63
2021/12/12 12:54:19;;;;;;;;;;;;;;;;;;7391608;19;19919;-62
2021/12/12 12:57:09;;;;;;;;;;;;;;;;;;7396021;19;19911;-64
2021/12/12 12:59:56;;;;;;;;;;;;;;;;;;7399292;19;19910;-63
2021/12/12 13:02:27;;;;;;;;;;;;;;;;;;7398627;19;20471;-63
2021/12/12 13:05:01;;;;;;;;;;;;;;;;;;7396443;19;19911;-62
2021/12/12 13:07:48;;;;;;;;;;;;;;;;;;7398546;19;19922;-62
2021/12/12 13:10:15;;;;;;;;;;;;;;;;;;7398719;19;20346;-62
2021/12/12 13:12:58;;;;;;;;;;;;;;;;;;7399616;19;19921;-65
2021/12/12 13:15:28;;;;;;;;;;;;;;;;;;7397978;19;19926;-61
2021/12/12 13:17:59;;;;;;;;;;;;;;;;;;7398683;19;19923;-64
2021/12/12 13:20:31;;;;;;;;;;;;;;;;;;7398229;19;19929;-62
2021/12/12 13:23:18;;;;;;;;;;;;;;;;;;7398296;19;19939;-64
2021/12/12 13:26:01;;;;;;;;;;;;;;;;;;7396951;19;19990;-63
2021/12/12 13:28:47;;;;;;;;;;;;;;;;;;7397797;19;19931;-61
2021/12/12 13:31:22;;;;;;;;;;;;;;;;;;7397957;19;19915;-63
2021/12/12 13:34:10;;;;;;;;;;;;;;;;;;7397597;19;19919;-62
2021/12/12 13:36:37;;;;;;;;;;;;;;;;;;7400478;19;19926;-61
2021/12/12 13:39:08;;;;;;;;;;;;;;;;;;7397081;19;19919;-62
2021/12/12 13:41:54;;;;;;;;;;;;;;;;;;7397939;19;19918;-63
2021/12/12 13:44:44;;;;;;;;;;;;;;;;;;7397350;19;19946;-57
2021/12/12 13:47:30;;;;;;;;;;;;;;;;;;7394795;19;19938;-65
2021/12/12 13:50:09;;;;;;;;;;;;;;;;;;7397798;19;19915;-62
2021/12/12 13:52:39;;;;;;;;;;;;;;;;;;7396113;19;19915;-62
2021/12/12 13:55:15;;;;;;;;;;;;;;;;;;7396902;19;19914;-62
2021/12/12 13:57:51;;;;;;;;;;;;;;;;;;7396759;19;19919;-62
2021/12/12 14:00:19;;;;;;;;;;;;;;;;;;7394399;19;20370;-63
2021/12/12 14:02:48;;;;;;;;;;;;;;;;;;7396525;19;19919;-63
2021/12/12 14:05:38;;;;;;;;;;;;;;;;;;7395515;19;19978;-63
2021/12/12 14:08:10;;;;;;;;;;;;;;;;;;7395590;19;19943;-62
2021/12/12 14:10:39;;;;;;;;;;;;;;;;;;7396958;19;19933;-63
2021/12/12 14:13:14;;;;;;;;;;;;;;;;;;7396794;19;19925;-62
2021/12/12 14:15:51;;;;;;;;;;;;;;;;;;7396165;19;19929;-63
2021/12/12 14:18:20;;;;;;;;;;;;;;;;;;7396780;19;19922;-64
2021/12/12 14:20:50;;;;;;;;;;;;;;;;;;7395966;19;19970;-62
2021/12/12 14:23:19;;;;;;;;;;;;;;;;;;7396093;19;19921;-61
2021/12/12 14:25:49;;;;;;;;;;;;;;;;;;7394375;19;20014;-64
2021/12/12 14:28:19;;;;;;;;;;;;;;;;;;7396409;19;19919;-63
2021/12/12 14:30:49;;;;;;;;;;;;;;;;;;7396005;19;20359;-63
2021/12/12 14:33:22;;;;;;;;;;;;;;;;;;7395930;19;19915;-62
2021/12/12 14:35:53;;;;;;;;;;;;;;;;;;7396707;19;19932;-63
2021/12/12 14:38:20;;;;;;;;;;;;;;;;;;7395981;19;19934;-64
2021/12/12 14:40:51;;;;;;;;;;;;;;;;;;7395267;19;19978;-62
2021/12/12 14:43:20;;;;;;;;;;;;;;;;;;7395499;19;19919;-62
2021/12/12 14:45:50;;;;;;;;;;;;;;;;;;7393646;19;20335;-62
2021/12/12 14:48:24;;;;;;;;;;;;;;;;;;7395373;19;19914;-64
2021/12/12 14:50:53;;;;;;;;;;;;;;;;;;7394988;19;20289;-63
2021/12/12 14:53:21;;;;;;;;;;;;;;;;;;7395045;19;19911;-64
2021/12/12 14:55:57;;;;;;;;;;;;;;;;;;7394647;19;19919;-64
2021/12/12 14:58:29;;;;;;;;;;;;;;;;;;7395501;19;20383;-62
2021/12/12 15:01:01;;;;;;;;;;;;;;;;;;7394928;19;19933;-63
2021/12/12 15:03:33;;;;;;;;;;;;;;;;;;7394360;19;19911;-62
2021/12/12 15:06:07;;;;;;;;;;;;;;;;;;7393776;19;19986;-63
2021/12/12 15:08:40;;;;;;;;;;;;;;;;;;7394920;19;19914;-63
2021/12/12 15:11:27;;;;;;;;;;;;;;;;;;7394760;19;19979;-62
2021/12/12 15:13:55;;;;;;;;;;;;;;;;;;7394417;19;19919;-62
2021/12/12 15:16:27;;;;;;;;;;;;;;;;;;7393802;19;19915;-62
2021/12/12 15:18:55;;;;;;;;;;;;;;;;;;7392582;19;19919;-64
2021/12/12 15:21:27;;;;;;;;;;;;;;;;;;7393144;19;20043;-63
2021/12/12 15:24:02;;;;;;;;;;;;;;;;;;7394574;19;19918;-62
2021/12/12 15:26:31;;;;;;;;;;;;;;;;;;7392708;19;19915;-62
2021/12/12 15:29:00;;;;;;;;;;;;;;;;;;7393606;19;19915;-63
2021/12/12 15:31:39;;;;;;;;;;;;;;;;;;7393742;19;20331;-64
2021/12/12 15:34:08;;;;;;;;;;;;;;;;;;7393903;19;19914;-62
2021/12/12 15:36:38;;;;;;;;;;;;;;;;;;7395953;19;19922;-62
2021/12/12 15:39:07;;;;;;;;;;;;;;;;;;7391737;19;19915;-62
2021/12/12 15:41:36;;;;;;;;;;;;;;;;;;7394071;19;19911;-62
2021/12/12 15:44:08;;;;;;;;;;;;;;;;;;7394433;19;19943;-62
2021/12/12 15:46:37;;;;;;;;;;;;;;;;;;7392118;19;19938;-61
2021/12/12 15:49:15;;;;;;;;;;;;;;;;;;7391002;19;20350;-62
2021/12/12 15:51:43;;;;;;;;;;;;;;;;;;7393104;19;19925;-62
2021/12/12 15:54:23;;;;;;;;;;;;;;;;;;7393725;19;19917;-63
2021/12/12 15:56:53;;;;;;;;;;;;;;;;;;7392648;19;19919;-64
2021/12/12 15:59:30;;;;;;;;;;;;;;;;;;7392884;19;19926;-63
2021/12/12 16:02:00;;;;;;;;;;;;;;;;;;7392369;19;19926;-63
2021/12/12 16:04:29;;;;;;;;;;;;;;;;;;7392934;19;19923;-63
2021/12/12 16:06:59;;;;;;;;;;;;;;;;;;7389990;19;19974;-65
2021/12/12 16:09:28;;;;;;;;;;;;;;;;;;7392422;19;19910;-64
2021/12/12 16:12:00;;;;;;;;;;;;;;;;;;7392781;19;19922;-63
2021/12/12 16:14:29;;;;;;;;;;;;;;;;;;7391716;19;19942;-64
2021/12/12 16:17:18;;;;;;;;;;;;;;;;;;7391877;19;19926;-63
2021/12/12 16:19:46;;;;;;;;;;;;;;;;;;7392562;19;19928;-63
2021/12/12 16:22:34;;;;;;;;;;;;;;;;;;7391062;19;19933;-64
2021/12/12 16:25:05;;;;;;;;;;;;;;;;;;7392407;19;19911;-64
2021/12/12 16:27:34;;;;;;;;;;;;;;;;;;7390921;19;19917;-63
2021/12/12 16:30:09;;;;;;;;;;;;;;;;;;7391964;19;19915;-62
2021/12/12 16:32:49;;;;;;;;;;;;;;;;;;7391842;19;19916;-62
2021/12/12 16:35:17;;;;;;;;;;;;;;;;;;7389883;19;19970;-64
2021/12/12 16:37:47;;;;;;;;;;;;;;;;;;7391661;19;19939;-63
2021/12/12 16:40:20;;;;;;;;;;;;;;;;;;7390460;19;19946;-63
2021/12/12 16:42:50;;;;;;;;;;;;;;;;;;7391230;19;19914;-64
2021/12/12 16:45:37;;;;;;;;;;;;;;;;;;7391748;19;19919;-62
2021/12/12 16:48:09;;;;;;;;;;;;;;;;;;7391638;19;19917;-65
2021/12/12 16:50:39;;;;;;;;;;;;;;;;;;7391189;19;19918;-63
2021/12/12 16:53:07;;;;;;;;;;;;;;;;;;7391157;19;19918;-63
2021/12/12 16:55:37;;;;;;;;;;;;;;;;;;7391907;19;19915;-65
2021/12/12 16:58:06;;;;;;;;;;;;;;;;;;7391497;19;19922;-63
2021/12/12 17:00:36;;;;;;;;;;;;;;;;;;7391259;19;19954;-63
2021/12/12 17:03:05;;;;;;;;;;;;;;;;;;7391633;19;20336;-63
2021/12/12 17:05:37;;;;;;;;;;;;;;;;;;7391526;19;19970;-63
2021/12/12 17:08:18;;;;;;;;;;;;;;;;;;7389505;19;19922;-63
2021/12/12 17:10:48;;;;;;;;;;;;;;;;;;7390208;19;19927;-63
2021/12/12 17:13:15;;;;;;;;;;;;;;;;;;7390991;19;19919;-64
2021/12/12 17:15:44;;;;;;;;;;;;;;;;;;7393258;19;19938;-63
2021/12/12 17:18:14;;;;;;;;;;;;;;;;;;7390693;19;19919;-63
2021/12/12 17:20:53;;;;;;;;;;;;;;;;;;7389117;19;19923;-63
2021/12/12 17:23:28;;;;;;;;;;;;;;;;;;7390423;19;19915;-63
2021/12/12 17:25:56;;;;;;;;;;;;;;;;;;7390512;19;19923;-66
2021/12/12 17:28:24;;;;;;;;;;;;;;;;;;7390863;19;19987;-67
2021/12/12 17:30:54;;;;;;;;;;;;;;;;;;7389876;19;19918;-64
2021/12/12 17:33:25;;;;;;;;;;;;;;;;;;7389011;19;19926;-67
2021/12/12 17:35:54;;;;;;;;;;;;;;;;;;7391544;19;19911;-64
2021/12/12 17:38:25;;;;;;;;;;;;;;;;;;7389834;19;19995;-65
2021/12/12 17:40:57;;;;;;;;;;;;;;;;;;7386944;19;19925;-66